Decoded Metar for EBFN (KOKSIJDE in BELGIUM) (IATA:N/A) | Meteo·Mobile Aviation Weather
aviador You're here:

EBFN Decoded Metar

KOKSIJDE in BELGIUM
Report Time2019-09-21 06:55:00
UTC Time2019-09-21 07:25:38
Flight Rules vfr VFR
Wind090° at 04 kt
W.Decomp.*RWY 11: 3.8 kt HW 1.4 kt LCW
Visibility9999 m
Phenomena:N/A
Clouds:N/A
Expected CloudBase > 2,400 ft AGL from Temp-Dew spread
CeilingNone
Temp11°C (ISA -4)
Dew Point05°C (67% RH)
AAT8.5°C
QNH1017 hPa
Density Alt-456 ft
Elevation30 ft
Report Wrong Elevation
Raw Report
METAR EBFN 210655Z AUTO 09004KT 9999 NCD 11/05 Q1017 BLU=

Extra information for EBFN:More info

Metar Taf Metar & Taf Last 4 Metars F.Rules Stats Wind Profile Meteogram Temp Stats Airport Information Weather charts Add Link Nearby VenuesMetar ALERT Operation Metar Decoded Social comments